Glorieta, NM (87535)

1:43 AM MDT on September 01, 2014 (GMT -0600)
Dos Griegos | Change Station
CLOSE
Current Station
Personal Weather Station
Location: Santa Fe, NM
Elevation: 7087 ft
Nearby Weather Stations

Elev 7087 ft 35.55 °N, 105.89 °W | Updated 13 seconds ago

Clear
Clear
60.9 °F
Feels Like 60.9 °F
N
0.0
Wind Variable Wind from SW
Gusts 1.0 mph

Today
High -- | Low -- °F
--% Chance of Precip.
Yesterday
High -- | Low -- °F
Precip. -- in
6:35 AM 7:30 PM
Waxing Crescent, 38% visible
Pressure 29.77 in
Visibility 10.0 miles
Clouds Clear
Dew Point 33 °F
Humidity 35%
Rainfall 0.00 in
Snow Depth Not available.
UV 0.0 out of 12
Pollen 8.40 out of 12
Air Quality Not available.
Flu Activity Not available.
METAR KSAF 010653Z AUTO 35003KT 10SM CLR 16/01 A3010 RMK AO2 SLP081 T01610006 403170128

More Conditions Fewer Conditions

Pressure 29.77 in
Visibility 10.0 miles
Clouds Clear
Dew Point 33 °F
Humidity 35%
Rainfall 0.00 in
Snow Depth Not available.
UV 0.0 out of 12
Pollen 8.40 out of 12
Air Quality Not available.
Flu Activity Not available.
METAR KSAF 010653Z AUTO 35003KT 10SM CLR 16/01 A3010 RMK AO2 SLP081 T01610006 403170128

More Conditions Fewer Conditions

10-Day Weather Forecast

Almanac

Astronomy

Sep. 01, 2014 Rise Set
Actual Time 6:35 AM MDT 7:30 PM MDT
Civil Twilight 6:09 AM MDT 7:56 PM MDT
Nautical Twilight 5:38 AM MDT 8:26 PM MDT
Astronomical Twilight 5:06 AM MDT 8:58 PM MDT
Moon 1:09 PM MDT 11:47 PM MDT
Length of Visible Light 13h 46m
Length of Day
12h 54m
Tomorrow will be 2m 10s shorter.
Waxing Crescent, 38% of the Moon is Illuminated
Today
Waxing Crescent
Sep 2
First Quarter
Sep 8
Full
Sep 15
Last Quarter
Sep 24
New

Today's Extremes

State Highs State Lows

Community

WunderPhotos

Upload Photos

1,749,154 photos uploaded!

Nearby

Snow Depth

Station Depth Elevation
Wesner Springs 2 in 11120 ft
Quemazon 1 in 9500 ft
Gallegos Peak 0 in 9800 ft
Senorita Divide #2 0 in 8600 ft
Tolby 0 in 10180 ft

Earthquake Activity

City Distance Mag. Time & Date
Trinidad, Colorado 113 miles 2.7 4:20 AM MDT
2014-08-31
Minimum magnitude displayed is 2.5.

Coastal Water Temperatures

Place Temperature
No Stations Reporting

Nearby Weather Stations